Flight Briefing for CPX315

Departure Arrival
Kansas City International Airport (KMCI)
Click to view FAA NOTAMS
Los Angeles International Airport (KLAX)
Click to view FAA NOTAMS
Departure Time Arrival Time
N/A N/A
Aircraft Distance
B767-300BDSF 1184nm
Departure METAR Arrival METAR
KMCI 152053Z 36007KT 1 1/2SM -SN OVC050 M10/M13 A3005 RMK AO2 SFC VIS 2 SLP191 P0002 60010 T11001128 55000 KLAX 152053Z 25012KT 9SM FEW027 BKN075 BKN160 15/09 A3012 RMK AO2 SLP199 T01500089 58002
Suggested Route
WLDCT5 SLN KD45W ALS TBC JASSE Q90 DNERO ANJLL4


View recent IFR Routes data
Notes
METROAIR CARGO SUPPORT

Charts and Procedures

Charts for KMCI
No chart available
Charts for KLAX
No chart available

Ventusky Weather